Time;durP1;ratioP1;P1;durP2;ratioP2;P2;SDS_P1;SDS_P2;PMS_P1;PMS_P2;Temp;Humidity;BMP_temperature;BMP_pressure;BME280_temperature;BME280_humidity;BME280_pressure;Samples;Min_cycle;Max_cycle;Signal;HPM_P1;HPM_P2
2021/12/08 00:09:05;;;;;;;4.82;1.92;;;;;;;1.77;100.00;94035.06;20429686;28;20062;-74
2021/12/08 00:19:06;;;;;;;4.70;2.30;;;;;;;1.87;100.00;94044.59;20444890;28;20150;-74
2021/12/08 00:29:06;;;;;;;6.35;2.40;;;;;;;1.97;100.00;94014.94;20457682;28;20054;-74
2021/12/08 00:39:07;;;;;;;6.97;3.30;;;;;;;2.08;100.00;94039.03;20453933;28;20085;-74
2021/12/08 00:49:09;;;;;;;7.53;3.38;;;;;;;2.22;100.00;94034.59;20458555;28;20051;-74
2021/12/08 00:59:10;;;;;;;9.00;3.70;;;;;;;2.35;100.00;94039.09;20459418;28;20332;-74
2021/12/08 01:09:12;;;;;;;7.88;4.43;;;;;;;2.39;100.00;94034.84;20422865;28;20099;-74
2021/12/08 01:19:12;;;;;;;10.50;5.10;;;;;;;2.50;100.00;94027.56;20448796;28;20043;-73
2021/12/08 01:29:13;;;;;;;13.43;6.85;;;;;;;2.57;100.00;94038.41;20454999;28;20050;-74
2021/12/08 01:50:29;;;;;;;18.63;8.55;;;;;;;2.72;100.00;94063.50;20442351;28;20047;-74
2021/12/08 02:00:43;;;;;;;29.85;8.55;;;;;;;2.84;100.00;94067.47;20457304;28;22686;-74
2021/12/08 02:21:29;;;;;;;18.17;6.88;;;;;;;2.98;100.00;94081.31;20438910;28;20059;-75
2021/12/08 02:31:41;;;;;;;29.55;7.78;;;;;;;3.06;100.00;94064.91;20466324;28;20055;-74
2021/12/08 02:52:02;;;;;;;17.27;5.32;;;;;;;3.13;100.00;94064.56;20454337;28;20415;-74
2021/12/08 03:02:04;;;;;;;30.83;5.53;;;;;;;3.19;100.00;94068.59;20450580;28;20047;-75
2021/12/08 03:12:05;;;;;;;25.60;4.97;;;;;;;3.25;100.00;94083.13;20451153;28;20380;-74
2021/12/08 03:22:10;;;;;;;11.77;2.60;;;;;;;3.07;100.00;94099.72;20431276;28;20067;-74
2021/12/08 03:32:15;;;;;;;9.15;1.67;;;;;;;2.80;100.00;94115.13;20447869;28;20369;-73
2021/12/08 03:42:16;;;;;;;5.70;1.58;;;;;;;2.59;100.00;94093.00;20449662;28;20066;-74
2021/12/08 03:52:17;;;;;;;8.57;1.35;;;;;;;2.35;100.00;94087.94;20437842;28;20234;-74
2021/12/08 04:02:17;;;;;;;10.73;1.55;;;;;;;2.28;100.00;94096.16;20446071;28;20047;-74
2021/12/08 04:12:20;;;;;;;8.63;1.60;;;;;;;2.22;100.00;94098.06;20446264;28;20097;-74
2021/12/08 04:22:25;;;;;;;15.73;2.05;;;;;;;2.36;100.00;94147.75;20429802;28;20050;-75
2021/12/08 04:32:28;;;;;;;13.30;2.08;;;;;;;2.35;100.00;94166.31;20439617;28;20389;-73
2021/12/08 04:42:45;;;;;;;18.35;2.15;;;;;;;2.28;100.00;94156.22;20451347;28;20036;-73
2021/12/08 05:03:15;;;;;;;16.48;2.22;;;;;;;1.96;100.00;94154.34;20456535;28;20047;-74
2021/12/08 05:13:12;;;;;;;12.02;2.55;;;;;;;2.01;100.00;94156.91;20457690;28;20078;-74
2021/12/08 05:23:22;;;;;;;24.20;2.95;;;;;;;2.04;100.00;94166.78;20448255;28;20343;-74
2021/12/08 05:33:24;;;;;;;18.42;2.45;;;;;;;1.79;100.00;94166.06;20454484;28;20051;-74
2021/12/08 05:43:25;;;;;;;21.00;3.72;;;;;;;1.73;100.00;94169.81;20448794;28;20047;-74
2021/12/08 05:53:26;;;;;;;19.27;2.65;;;;;;;1.55;100.00;94183.63;20463561;28;20054;-73
2021/12/08 06:03:27;;;;;;;19.05;2.17;;;;;;;1.75;100.00;94185.19;20451256;28;20133;-74
2021/12/08 06:13:28;;;;;;;20.13;3.38;;;;;;;1.78;100.00;94182.81;20448782;28;20040;-73
2021/12/08 06:23:29;;;;;;;20.70;3.58;;;;;;;1.83;100.00;94196.84;20453180;28;20065;-73
2021/12/08 06:33:31;;;;;;;18.02;2.10;;;;;;;1.81;100.00;94184.06;20417329;28;20496;-73
2021/12/08 06:43:38;;;;;;;15.75;2.40;;;;;;;1.81;100.00;94191.91;20466234;28;20058;-73
2021/12/08 06:53:41;;;;;;;14.50;2.78;;;;;;;1.90;100.00;94192.03;20415889;28;20047;-75
2021/12/08 07:13:55;;;;;;;17.88;2.28;;;;;;;1.86;100.00;94170.97;20489212;28;20361;-76
2021/12/08 07:24:00;;;;;;;17.05;3.70;;;;;;;1.65;100.00;94186.09;20445366;28;20059;-77
2021/12/08 07:34:06;;;;;;;10.87;1.77;;;;;;;1.67;100.00;94199.63;20415736;28;20338;-75
2021/12/08 07:44:12;;;;;;;13.10;2.28;;;;;;;1.64;100.00;94189.00;20427097;28;20443;-76
2021/12/08 07:54:14;;;;;;;14.02;3.40;;;;;;;1.51;100.00;94203.50;20445512;28;20063;-76
2021/12/08 08:04:19;;;;;;;15.55;2.10;;;;;;;1.47;100.00;94218.94;20453212;28;20054;-76
2021/12/08 08:14:20;;;;;;;13.63;2.00;;;;;;;1.42;100.00;94223.44;20449207;28;20223;-76
2021/12/08 08:24:21;;;;;;;11.88;2.22;;;;;;;1.34;100.00;94212.56;20441861;28;20047;-76
2021/12/08 08:34:21;;;;;;;9.70;2.25;;;;;;;1.31;100.00;94196.69;20447427;28;20046;-76
2021/12/08 08:44:51;;;;;;;14.73;2.28;;;;;;;1.37;100.00;94200.81;20568517;23;20627;-75
2021/12/08 08:54:53;;;;;;;15.27;2.10;;;;;;;1.51;100.00;94233.00;20577933;28;20122;-76
2021/12/08 09:04:58;;;;;;;13.80;2.20;;;;;;;1.64;100.00;94212.50;20603448;28;20054;-76
2021/12/08 09:15:10;;;;;;;22.45;3.00;;;;;;;1.76;100.00;94226.69;20604401;28;20046;-76
2021/12/08 09:25:18;;;;;;;15.35;2.50;;;;;;;1.83;100.00;94231.53;20613685;28;20062;-76
2021/12/08 09:35:28;;;;;;;9.48;1.60;;;;;;;1.95;100.00;94234.53;20611375;28;20057;-76
2021/12/08 09:45:31;;;;;;;25.58;2.88;;;;;;;1.99;100.00;94248.56;20525465;28;20171;-76
2021/12/08 09:55:32;;;;;;;17.67;2.67;;;;;;;2.04;100.00;94279.06;20465212;28;20329;-76
2021/12/08 10:05:34;;;;;;;13.15;2.65;;;;;;;2.08;100.00;94282.66;20476953;28;20051;-76
2021/12/08 10:15:35;;;;;;;12.77;2.20;;;;;;;2.35;100.00;94292.50;20478799;28;20090;-77
2021/12/08 10:25:40;;;;;;;16.60;1.98;;;;;;;2.54;100.00;94263.75;20488143;28;20050;-77
2021/12/08 10:35:43;;;;;;;12.05;2.08;;;;;;;2.63;100.00;94263.09;20475445;28;20553;-77
2021/12/08 10:45:43;;;;;;;12.57;2.17;;;;;;;2.70;100.00;94287.81;20478898;28;20490;-77
2021/12/08 10:55:50;;;;;;;20.05;2.45;;;;;;;2.48;100.00;94285.00;20462094;28;20081;-78
2021/12/08 11:05:53;;;;;;;13.98;2.55;;;;;;;2.60;100.00;94293.97;20470020;28;20038;-77
2021/12/08 11:16:02;;;;;;;20.17;2.50;;;;;;;2.93;100.00;94294.00;20439694;28;20555;-76
2021/12/08 11:26:08;;;;;;;7.50;1.60;;;;;;;2.77;100.00;94297.91;20472519;28;20118;-77
2021/12/08 11:36:18;;;;;;;14.45;2.30;;;;;;;2.70;100.00;94302.72;20476542;28;20469;-77
2021/12/08 11:46:21;;;;;;;12.38;2.05;;;;;;;2.70;100.00;94308.72;20473024;28;20086;-77
2021/12/08 11:56:37;;;;;;;11.18;1.92;;;;;;;2.68;100.00;94313.47;20469827;28;20579;-77
2021/12/08 12:06:37;;;;;;;11.33;2.93;;;;;;;2.66;100.00;94312.97;20445169;28;21129;-78
2021/12/08 12:16:38;;;;;;;7.60;2.20;;;;;;;2.77;100.00;94319.59;20479408;28;20055;-77
2021/12/08 12:26:57;;;;;;;12.43;2.25;;;;;;;2.68;100.00;94318.69;20463240;28;20047;-80
2021/12/08 12:36:58;;;;;;;9.55;2.22;;;;;;;3.03;100.00;94327.06;20468146;28;20110;-79
2021/12/08 12:47:19;;;;;;;17.77;2.45;;;;;;;3.03;100.00;94329.69;20464935;28;20047;-79
2021/12/08 12:57:19;;;;;;;13.52;3.13;;;;;;;3.16;100.00;94330.78;20462528;28;20043;-78
2021/12/08 13:07:20;;;;;;;13.77;2.05;;;;;;;3.20;100.00;94319.44;20472686;28;20054;-78
2021/12/08 13:17:25;;;;;;;14.48;3.00;;;;;;;3.21;100.00;94318.41;20466688;28;20094;-78
2021/12/08 13:27:29;;;;;;;13.45;1.67;;;;;;;3.34;100.00;94332.56;20520700;28;20392;-78
2021/12/08 13:37:29;;;;;;;19.80;2.42;;;;;;;3.37;100.00;94344.28;20472241;28;20110;-80
2021/12/08 13:47:33;;;;;;;11.73;2.13;;;;;;;3.14;100.00;94353.81;20481542;28;20480;-80
2021/12/08 13:57:34;;;;;;;11.30;1.98;;;;;;;2.77;100.00;94371.09;20477651;28;20039;-80
2021/12/08 14:07:37;;;;;;;33.83;3.53;;;;;;;2.65;100.00;94379.38;20483086;28;20201;-79
2021/12/08 14:17:37;;;;;;;12.27;1.75;;;;;;;2.83;100.00;94362.13;20524214;28;20054;-79
2021/12/08 14:27:38;;;;;;;14.68;2.78;;;;;;;2.65;100.00;94361.06;20486875;28;20496;-79
2021/12/08 14:37:38;;;;;;;10.88;1.77;;;;;;;2.54;100.00;94362.28;20473403;28;20076;-80
2021/12/08 14:47:43;;;;;;;11.57;2.45;;;;;;;2.27;100.00;94366.28;20524269;28;20062;-81
2021/12/08 14:57:46;;;;;;;13.80;2.33;;;;;;;2.16;100.00;94377.88;20473291;28;20059;-79
2021/12/08 15:07:48;;;;;;;16.75;2.47;;;;;;;1.95;100.00;94372.13;20503007;28;20493;-81
2021/12/08 15:17:59;;;;;;;10.90;2.47;;;;;;;1.84;100.00;94391.56;20466567;28;20062;-80
2021/12/08 15:28:06;;;;;;;18.73;2.53;;;;;;;1.75;100.00;94399.97;20483196;28;20446;-80
2021/12/08 15:38:07;;;;;;;25.33;3.72;;;;;;;1.42;100.00;94400.81;20471651;28;20063;-79
2021/12/08 15:48:14;;;;;;;14.27;3.63;;;;;;;1.14;100.00;94397.91;20465444;28;20117;-79
2021/12/08 15:58:15;;;;;;;24.20;6.63;;;;;;;1.06;100.00;94411.50;20478384;28;20035;-81
2021/12/08 16:08:16;;;;;;;26.58;6.78;;;;;;;1.03;100.00;94415.44;20463365;28;20508;-80
2021/12/08 16:18:27;;;;;;;15.75;3.80;;;;;;;0.93;100.00;94423.34;20475570;28;20078;-79
2021/12/08 16:28:27;;;;;;;16.45;3.55;;;;;;;0.67;100.00;94413.03;20483002;28;20259;-81
2021/12/08 16:38:32;;;;;;;35.80;6.80;;;;;;;0.70;100.00;94437.81;20537651;28;20497;-80
2021/12/08 16:48:32;;;;;;;21.65;6.45;;;;;;;0.75;100.00;94448.19;20464062;28;20070;-81
2021/12/08 16:58:33;;;;;;;35.75;12.00;;;;;;;0.46;100.00;94454.06;20471698;28;20039;-81
2021/12/08 17:08:34;;;;;;;15.98;4.13;;;;;;;0.10;100.00;94467.19;20486214;28;20055;-79
2021/12/08 17:18:35;;;;;;;12.35;3.40;;;;;;;-0.03;100.00;94471.09;20478135;28;20047;-82
2021/12/08 17:28:37;;;;;;;28.55;6.53;;;;;;;0.22;100.00;94473.91;20510251;28;20307;-80
2021/12/08 17:38:39;;;;;;;20.75;6.53;;;;;;;0.10;100.00;94471.59;20479104;28;20514;-80
2021/12/08 17:48:42;;;;;;;12.88;3.17;;;;;;;-0.01;100.00;94481.25;20487361;28;20066;-78
2021/12/08 17:58:43;;;;;;;16.65;5.15;;;;;;;-0.21;100.00;94493.25;20477003;28;20066;-81
2021/12/08 18:08:44;;;;;;;18.30;4.63;;;;;;;-0.39;100.00;94496.38;20470752;28;20328;-81
2021/12/08 18:18:45;;;;;;;25.27;6.25;;;;;;;-0.43;100.00;94500.53;20476826;28;20047;-76
2021/12/08 18:28:45;;;;;;;18.95;7.68;;;;;;;-0.12;100.00;94511.72;20476908;28;20525;-76
2021/12/08 18:38:47;;;;;;;28.63;8.90;;;;;;;-0.13;100.00;94517.97;20471068;28;20503;-79
2021/12/08 18:48:49;;;;;;;41.08;13.63;;;;;;;-0.19;100.00;94539.06;20472701;28;20619;-80
2021/12/08 18:58:52;;;;;;;24.70;6.65;;;;;;;0.05;100.00;94547.13;20485054;28;20045;-73
2021/12/08 19:08:55;;;;;;;21.75;6.63;;;;;;;0.14;100.00;94540.31;20439574;28;20152;-73
2021/12/08 19:18:58;;;;;;;22.52;4.78;;;;;;;0.24;100.00;94542.91;20465862;28;20039;-73
2021/12/08 19:28:59;;;;;;;19.05;5.57;;;;;;;0.21;100.00;94573.91;20468680;28;20042;-73
2021/12/08 19:39:01;;;;;;;22.27;5.07;;;;;;;0.19;100.00;94572.34;20417307;28;20070;-73
2021/12/08 19:49:04;;;;;;;17.95;4.82;;;;;;;0.28;100.00;94590.03;20440971;28;20059;-73
2021/12/08 19:59:06;;;;;;;32.40;8.65;;;;;;;0.30;100.00;94587.94;20451066;28;20135;-73
2021/12/08 20:09:06;;;;;;;23.75;5.57;;;;;;;0.23;100.00;94590.06;20450756;28;20061;-74
2021/12/08 20:19:11;;;;;;;17.40;4.22;;;;;;;0.36;100.00;94599.94;20457124;28;20054;-74
2021/12/08 20:29:12;;;;;;;19.10;4.85;;;;;;;0.33;100.00;94610.88;20477569;28;20137;-74
2021/12/08 20:49:40;;;;;;;14.05;4.32;;;;;;;0.41;100.00;94633.78;20462665;28;20051;-73
2021/12/08 20:59:51;;;;;;;14.07;3.97;;;;;;;0.47;100.00;94643.16;20456963;28;20568;-74
2021/12/08 21:20:25;;;;;;;17.25;6.38;;;;;;;0.28;100.00;94649.94;20459932;28;20051;-73
2021/12/08 21:30:26;;;;;;;28.15;6.07;;;;;;;0.08;100.00;94663.72;20467175;28;20050;-75
2021/12/08 21:50:53;;;;;;;15.07;4.13;;;;;;;0.27;100.00;94688.22;20495967;28;20533;-74
2021/12/08 22:00:55;;;;;;;14.60;4.97;;;;;;;0.35;100.00;94698.13;20524120;28;20057;-74
2021/12/08 22:10:57;;;;;;;11.30;4.57;;;;;;;0.38;100.00;94712.44;20515370;28;20072;-75
2021/12/08 22:20:58;;;;;;;14.05;4.15;;;;;;;0.38;100.00;94715.03;20507887;28;20110;-74
2021/12/08 22:30:58;;;;;;;16.85;5.97;;;;;;;0.44;100.00;94727.03;20506382;28;20495;-74
2021/12/08 22:40:59;;;;;;;17.98;4.28;;;;;;;0.41;100.00;94727.56;20504085;28;20447;-74
2021/12/08 22:51:00;;;;;;;18.05;4.10;;;;;;;0.37;100.00;94740.31;20458070;28;20053;-74
2021/12/08 23:01:18;;;;;;;18.45;5.13;;;;;;;0.41;100.00;94743.19;20576467;23;20035;-73
2021/12/08 23:11:25;;;;;;;15.73;3.67;;;;;;;0.30;100.00;94734.56;20286896;29;20195;-73
2021/12/08 23:21:28;;;;;;;21.67;5.15;;;;;;;-0.05;100.00;94738.66;20338229;29;20403;-73
2021/12/08 23:31:29;;;;;;;17.17;4.82;;;;;;;-0.09;100.00;94740.19;20360290;29;20127;-73
2021/12/08 23:41:33;;;;;;;11.35;4.07;;;;;;;-0.07;100.00;94743.34;20334342;29;20047;-73
2021/12/08 23:51:34;;;;;;;13.40;4.47;;;;;;;0.02;100.00;94746.25;20333478;29;20278;-73
